createdAt,value
2023-04-06T00:01:06.205Z,75.45
2023-04-06T00:03:35.507Z,75.27
2023-04-06T00:06:05.321Z,75.29
2023-04-06T00:08:36.651Z,75.36
2023-04-06T00:11:06.069Z,75.18
2023-04-06T00:13:35.742Z,75.08
2023-04-06T00:16:06.341Z,74.94
2023-04-06T00:18:35.442Z,74.85
2023-04-06T00:21:05.014Z,74.82
2023-04-06T00:23:34.314Z,74.62
2023-04-06T00:26:03.430Z,74.54
2023-04-06T00:28:32.589Z,74.53
2023-04-06T00:31:02.152Z,74.61
2023-04-06T00:33:30.580Z,74.70
2023-04-06T00:35:59.092Z,74.83
2023-04-06T00:38:27.508Z,74.91
2023-04-06T00:40:56.331Z,74.88
2023-04-06T00:43:25.398Z,74.82
2023-04-06T00:45:54.443Z,74.89
2023-04-06T00:48:22.736Z,74.88
2023-04-06T00:50:51.174Z,74.74
2023-04-06T00:53:19.507Z,74.81
2023-04-06T00:55:47.942Z,74.89
2023-04-06T00:58:16.530Z,75.11
2023-04-06T01:00:45.472Z,75.11
2023-04-06T01:03:14.295Z,75.26
2023-04-06T01:05:44.489Z,75.44
2023-04-06T01:08:12.910Z,75.45
2023-04-06T01:10:42.105Z,75.49
2023-04-06T01:13:10.711Z,75.34
2023-04-06T01:15:40.193Z,75.74
2023-04-06T01:18:10.786Z,75.64
2023-04-06T01:20:40.025Z,75.58
2023-04-06T01:23:08.801Z,75.66
2023-04-06T01:25:37.187Z,75.71
2023-04-06T01:28:06.281Z,75.66
2023-04-06T01:30:36.055Z,75.59
2023-04-06T01:33:05.372Z,75.72
2023-04-06T01:35:34.696Z,75.66
2023-04-06T01:38:03.253Z,75.68
2023-04-06T01:40:32.866Z,75.66
2023-04-06T01:43:01.372Z,75.66
2023-04-06T01:45:30.218Z,75.58
2023-04-06T01:47:58.693Z,75.61
2023-04-06T01:50:27.181Z,75.54
2023-04-06T01:52:58.454Z,75.45
2023-04-06T01:55:27.150Z,75.58
2023-04-06T01:57:55.740Z,75.71
2023-04-06T02:00:24.466Z,75.72
2023-04-06T02:02:52.734Z,75.75
2023-04-06T02:05:21.869Z,76.00
2023-04-06T02:07:50.331Z,75.88
2023-04-06T02:10:18.786Z,76.04
2023-04-06T02:12:47.361Z,76.20
2023-04-06T02:15:16.464Z,76.29
2023-04-06T02:17:45.509Z,76.50
2023-04-06T02:20:15.392Z,76.67
2023-04-06T02:22:44.032Z,76.53
2023-04-06T02:25:12.737Z,76.50
2023-04-06T02:27:41.632Z,76.44
2023-04-06T02:30:11.516Z,76.56
2023-04-06T02:32:39.878Z,76.41
2023-04-06T02:35:09.089Z,76.54
2023-04-06T02:37:37.338Z,76.31
2023-04-06T02:40:11.798Z,76.46
2023-04-06T02:42:42.220Z,76.44
2023-04-06T02:45:10.593Z,76.71
2023-04-06T02:47:39.077Z,76.77
2023-04-06T02:50:07.983Z,77.06
2023-04-06T02:52:37.362Z,77.20
2023-04-06T02:55:09.522Z,77.40
2023-04-06T02:57:37.898Z,77.34
2023-04-06T03:00:08.510Z,77.18
2023-04-06T03:02:37.579Z,77.13
2023-04-06T03:05:07.438Z,77.28
2023-04-06T03:07:36.556Z,77.43
2023-04-06T03:10:06.684Z,77.27
2023-04-06T03:12:39.168Z,77.67
2023-04-06T03:15:09.142Z,77.62
2023-04-06T03:17:37.789Z,77.39
2023-04-06T03:20:07.535Z,77.31
2023-04-06T03:22:36.751Z,77.19
2023-04-06T03:25:06.952Z,77.24
2023-04-06T03:27:36.194Z,77.30
2023-04-06T03:30:06.316Z,77.05
2023-04-06T03:32:36.759Z,77.01
2023-04-06T03:35:06.560Z,76.73
2023-04-06T03:37:35.757Z,76.76
2023-04-06T03:40:06.229Z,76.51
2023-04-06T03:42:35.538Z,76.61
2023-04-06T03:45:04.641Z,76.73
2023-04-06T03:47:33.795Z,76.68
2023-04-06T03:50:03.687Z,76.79
2023-04-06T03:52:32.802Z,77.12
2023-04-06T03:55:02.590Z,77.09
2023-04-06T03:57:31.056Z,77.23
2023-04-06T03:59:59.486Z,77.13
2023-04-06T04:02:28.460Z,77.38
2023-04-06T04:04:57.196Z,77.55
2023-04-06T04:07:25.617Z,77.60
2023-04-06T04:09:54.340Z,77.46
2023-04-06T04:12:23.189Z,77.54
2023-04-06T04:15:16.938Z,77.94
2023-04-06T04:17:50.746Z,77.39
2023-04-06T04:20:23.402Z,77.50
2023-04-06T04:22:56.326Z,77.56
2023-04-06T04:25:28.886Z,77.89
2023-04-06T04:28:03.035Z,78.02
2023-04-06T04:30:36.803Z,78.02
2023-04-06T04:33:14.106Z,77.84
2023-04-06T04:35:46.742Z,77.98
2023-04-06T04:38:21.001Z,78.04
2023-04-06T04:40:53.641Z,77.99
2023-04-06T04:43:26.705Z,78.08
2023-04-06T04:46:00.258Z,78.35
2023-04-06T04:48:34.178Z,78.51
2023-04-06T04:51:08.928Z,78.41
2023-04-06T04:53:42.553Z,78.54
2023-04-06T04:56:15.364Z,78.75
2023-04-06T04:58:48.082Z,78.81
2023-04-06T05:01:20.765Z,78.67
2023-04-06T05:03:55.065Z,78.55
2023-04-06T05:06:28.127Z,78.64
2023-04-06T05:09:00.759Z,78.46
2023-04-06T05:11:33.281Z,78.50
2023-04-06T05:14:07.511Z,78.54
2023-04-06T05:16:41.934Z,78.72
2023-04-06T05:19:15.390Z,78.35
2023-04-06T05:21:48.107Z,78.30
2023-04-06T05:24:21.330Z,78.29
2023-04-06T05:26:54.267Z,78.24
2023-04-06T05:29:27.436Z,77.93
2023-04-06T05:32:03.417Z,77.96
2023-04-06T05:35:10.095Z,78.69
2023-04-06T05:37:55.957Z,77.82
2023-04-06T05:40:31.710Z,77.53
2023-04-06T05:43:04.567Z,77.21
2023-04-06T05:45:38.955Z,77.22
2023-04-06T05:48:11.967Z,76.87
2023-04-06T05:50:45.037Z,76.80
2023-04-06T05:53:17.616Z,76.88
2023-04-06T05:55:50.528Z,77.00
2023-04-06T05:58:23.146Z,76.69
2023-04-06T06:01:00.742Z,76.55
2023-04-06T06:03:33.521Z,76.57
2023-04-06T06:06:08.212Z,76.72
2023-04-06T06:08:41.777Z,76.74
2023-04-06T06:11:14.848Z,76.50
2023-04-06T06:13:51.088Z,76.47
2023-04-06T06:16:30.435Z,76.56
2023-04-06T06:19:03.163Z,76.49
2023-04-06T06:21:36.505Z,76.54
2023-04-06T06:24:10.796Z,76.66
2023-04-06T06:26:45.455Z,76.82
2023-04-06T06:29:18.402Z,76.64
2023-04-06T06:31:51.569Z,76.56
2023-04-06T06:34:24.620Z,76.57
2023-04-06T06:36:57.852Z,76.52
2023-04-06T06:39:30.821Z,76.43
2023-04-06T06:42:03.782Z,76.16
2023-04-06T06:44:39.189Z,75.96
2023-04-06T06:47:12.260Z,76.11
2023-04-06T06:49:45.144Z,76.11
2023-04-06T06:52:18.176Z,75.67
2023-04-06T06:54:51.098Z,74.82
2023-04-06T06:57:24.089Z,74.72
2023-04-06T06:59:56.897Z,74.53
2023-04-06T07:02:30.158Z,74.11
2023-04-06T07:05:10.154Z,74.20
2023-04-06T07:07:49.904Z,74.42
2023-04-06T07:10:27.604Z,73.95
2023-04-06T07:13:00.854Z,73.78
2023-04-06T07:15:34.779Z,73.81
2023-04-06T07:18:10.999Z,73.45
2023-04-06T07:20:44.020Z,73.67
2023-04-06T07:23:17.341Z,74.08
2023-04-06T07:25:52.173Z,73.44
2023-04-06T07:28:27.459Z,73.11
2023-04-06T07:31:00.373Z,73.42
2023-04-06T07:33:33.316Z,72.93
2023-04-06T07:36:07.151Z,72.91
2023-04-06T07:38:41.304Z,72.75
2023-04-06T07:41:14.118Z,71.88
2023-04-06T07:43:46.748Z,71.22
2023-04-06T07:46:19.713Z,71.23
2023-04-06T07:48:52.724Z,71.16
2023-04-06T07:51:26.739Z,70.94
2023-04-06T07:53:59.807Z,71.10
2023-04-06T07:56:33.187Z,70.49
2023-04-06T07:59:05.920Z,69.82
2023-04-06T08:01:39.928Z,70.38
2023-04-06T08:04:13.582Z,70.08
2023-04-06T08:06:46.658Z,69.58
2023-04-06T08:09:19.785Z,69.73
2023-04-06T08:11:52.524Z,69.45
2023-04-06T08:14:25.364Z,69.71
2023-04-06T08:16:58.047Z,69.01
2023-04-06T08:19:31.834Z,69.91
2023-04-06T08:22:05.133Z,69.27
2023-04-06T08:24:39.601Z,67.99
2023-04-06T08:27:15.156Z,68.29
2023-04-06T08:29:48.305Z,68.85
2023-04-06T08:32:21.100Z,68.16
2023-04-06T08:34:57.404Z,68.04
2023-04-06T08:37:35.547Z,67.00
2023-04-06T08:40:10.917Z,66.54
2023-04-06T08:42:51.993Z,66.31
2023-04-06T08:45:24.794Z,66.25
2023-04-06T08:48:02.951Z,66.49
2023-04-06T08:50:37.871Z,66.30
2023-04-06T08:53:13.462Z,66.36
2023-04-06T08:55:48.216Z,67.03
2023-04-06T08:58:37.329Z,67.95
2023-04-06T09:01:16.613Z,67.49
2023-04-06T09:03:51.653Z,66.10
2023-04-06T09:06:25.465Z,64.86
2023-04-06T09:08:59.171Z,64.51
2023-04-06T09:11:31.981Z,65.06
2023-04-06T09:14:04.732Z,65.66
2023-04-06T09:16:47.786Z,65.34
2023-04-06T09:19:21.933Z,65.43
2023-04-06T09:22:05.636Z,64.94
2023-04-06T09:24:47.478Z,64.53
2023-04-06T09:27:21.089Z,64.68
2023-04-06T09:30:05.087Z,64.86
2023-04-06T09:32:49.083Z,63.81
2023-04-06T09:35:23.274Z,64.43
2023-04-06T09:37:57.253Z,63.80
2023-04-06T09:40:30.384Z,63.48
2023-04-06T09:43:09.053Z,63.31
2023-04-06T09:45:43.078Z,63.24
2023-04-06T09:48:16.581Z,62.73
2023-04-06T09:50:51.178Z,62.93
2023-04-06T09:53:27.786Z,62.87
2023-04-06T09:56:05.218Z,63.16
2023-04-06T09:58:46.017Z,63.61
2023-04-06T10:01:24.567Z,63.49
2023-04-06T10:04:09.198Z,63.55
2023-04-06T10:06:43.589Z,63.77
2023-04-06T10:09:17.095Z,63.27
2023-04-06T10:11:51.522Z,62.58
2023-04-06T10:14:25.760Z,61.79
2023-04-06T10:17:00.528Z,62.38
2023-04-06T10:19:41.390Z,62.14
2023-04-06T10:22:20.992Z,60.46
2023-04-06T10:24:54.115Z,61.20
2023-04-06T10:27:35.043Z,59.79
2023-04-06T10:30:11.522Z,61.15
2023-04-06T10:32:45.753Z,61.28
2023-04-06T10:35:20.670Z,61.12
2023-04-06T10:37:55.912Z,62.03
2023-04-06T10:40:30.479Z,62.11
2023-04-06T10:43:15.805Z,61.60
2023-04-06T10:45:56.973Z,60.68
2023-04-06T10:48:44.073Z,61.05
2023-04-06T10:51:18.465Z,60.85
2023-04-06T10:53:52.435Z,59.64
2023-04-06T10:56:29.311Z,60.53
2023-04-06T10:59:02.378Z,60.24
2023-04-06T11:01:35.214Z,60.48
2023-04-06T11:04:14.459Z,58.56
2023-04-06T11:06:51.948Z,58.13
2023-04-06T11:09:32.639Z,58.11
2023-04-06T11:12:09.079Z,57.82
2023-04-06T11:14:42.805Z,58.60
2023-04-06T11:17:19.216Z,59.50
2023-04-06T11:20:12.287Z,60.15
2023-04-06T11:22:54.366Z,59.11
2023-04-06T11:25:28.921Z,58.40
2023-04-06T11:28:06.573Z,58.72
2023-04-06T11:30:43.325Z,58.40
2023-04-06T11:33:25.228Z,58.72
2023-04-06T11:36:01.171Z,58.48
2023-04-06T11:38:34.217Z,58.80
2023-04-06T11:41:08.604Z,58.59
2023-04-06T11:43:48.784Z,59.00
2023-04-06T11:46:23.250Z,59.45
2023-04-06T11:49:00.400Z,59.25
2023-04-06T11:51:53.525Z,58.00
2023-04-06T11:54:56.401Z,57.13
2023-04-06T11:57:29.187Z,57.91
2023-04-06T12:00:01.898Z,58.07
2023-04-06T12:02:34.833Z,57.27
2023-04-06T12:05:10.128Z,56.65
2023-04-06T12:07:43.895Z,56.15
2023-04-06T12:10:17.229Z,55.44
2023-04-06T12:12:49.780Z,55.76
2023-04-06T12:15:22.788Z,55.68
2023-04-06T12:17:55.411Z,55.46
2023-04-06T12:20:28.795Z,55.11
2023-04-06T12:23:01.424Z,55.34
2023-04-06T12:25:34.430Z,55.60
2023-04-06T12:28:07.142Z,54.16
2023-04-06T12:30:42.652Z,54.39
2023-04-06T12:33:15.477Z,54.53
2023-04-06T12:35:48.324Z,54.32
2023-04-06T12:38:22.295Z,54.45
2023-04-06T12:40:55.128Z,55.34
2023-04-06T12:43:27.770Z,53.97
2023-04-06T12:46:01.141Z,53.68
2023-04-06T12:48:34.569Z,54.20
2023-04-06T12:51:09.734Z,53.93
2023-04-06T12:53:43.480Z,52.55
2023-04-06T12:56:18.574Z,51.92
2023-04-06T12:58:52.965Z,51.92
2023-04-06T13:01:26.974Z,51.42
2023-04-06T13:04:00.543Z,51.44
2023-04-06T13:06:33.493Z,50.46
2023-04-06T13:09:06.904Z,50.02
2023-04-06T13:11:42.639Z,50.42
2023-04-06T13:14:15.363Z,50.69
2023-04-06T13:16:48.562Z,51.70
2023-04-06T13:19:21.326Z,51.75
2023-04-06T13:21:54.745Z,50.88
2023-04-06T13:24:31.718Z,49.96
2023-04-06T13:27:07.093Z,49.69
2023-04-06T13:29:41.137Z,49.24
2023-04-06T13:32:14.377Z,49.97
2023-04-06T13:34:49.273Z,48.82
2023-04-06T13:37:22.381Z,48.32
2023-04-06T13:39:54.907Z,48.27
2023-04-06T13:42:29.199Z,47.96
2023-04-06T13:45:02.094Z,47.15
2023-04-06T13:47:36.191Z,46.35
2023-04-06T13:50:10.627Z,46.31
2023-04-06T13:52:44.970Z,47.56
2023-04-06T13:55:22.818Z,46.16
2023-04-06T13:57:59.487Z,45.05
2023-04-06T14:00:40.454Z,44.57
2023-04-06T14:03:18.614Z,44.93
2023-04-06T14:06:09.341Z,44.61
2023-04-06T14:08:55.989Z,44.44
2023-04-06T14:12:27.285Z,43.88
2023-04-06T14:15:13.824Z,44.11
2023-04-06T14:17:47.874Z,41.80
2023-04-06T14:20:22.006Z,41.83
2023-04-06T14:22:56.902Z,41.36
2023-04-06T14:25:29.876Z,39.92
2023-04-06T14:28:02.688Z,41.09
2023-04-06T14:30:36.113Z,40.03
2023-04-06T14:33:09.570Z,39.40
2023-04-06T14:35:44.414Z,40.67
2023-04-06T14:38:21.999Z,41.74
2023-04-06T14:41:00.603Z,41.15
2023-04-06T14:43:34.106Z,40.94
2023-04-06T14:46:07.032Z,41.73
2023-04-06T14:48:41.591Z,42.04
2023-04-06T14:51:14.377Z,41.32
2023-04-06T14:53:47.518Z,41.51
2023-04-06T14:56:25.074Z,40.18
2023-04-06T14:58:59.861Z,40.81
2023-04-06T15:01:36.433Z,38.83
2023-04-06T15:04:10.385Z,38.24
2023-04-06T15:06:55.421Z,38.86
2023-04-06T15:09:28.922Z,39.35
2023-04-06T15:12:02.653Z,37.99
2023-04-06T15:14:37.209Z,37.34
2023-04-06T15:17:11.267Z,39.54
2023-04-06T15:20:03.533Z,39.10
2023-04-06T15:22:37.791Z,38.78
2023-04-06T15:25:12.846Z,39.24
2023-04-06T15:27:46.305Z,40.86
2023-04-06T15:30:19.277Z,41.38
2023-04-06T15:32:59.676Z,41.73
2023-04-06T15:35:40.863Z,41.76
2023-04-06T15:38:44.069Z,42.15
2023-04-06T15:41:17.578Z,42.71
2023-04-06T15:43:50.411Z,42.44
2023-04-06T15:46:41.624Z,42.85
2023-04-06T15:49:23.419Z,42.76
2023-04-06T15:51:56.525Z,43.15
2023-04-06T15:54:37.386Z,42.76
2023-04-06T15:57:14.987Z,43.36
2023-04-06T15:59:56.412Z,43.61
2023-04-06T16:02:31.774Z,43.32
2023-04-06T16:05:05.626Z,43.61
2023-04-06T16:07:38.729Z,43.74
2023-04-06T16:10:14.045Z,43.85
2023-04-06T16:12:47.185Z,44.00
2023-04-06T16:15:22.194Z,44.32
2023-04-06T16:17:55.198Z,44.45
2023-04-06T16:20:34.783Z,44.44
2023-04-06T16:23:07.436Z,44.60
2023-04-06T16:25:44.351Z,44.68
2023-04-06T16:28:18.999Z,44.92
2023-04-06T16:30:54.017Z,45.02
2023-04-06T16:33:26.627Z,45.17
2023-04-06T16:36:00.399Z,45.39
2023-04-06T16:38:35.915Z,45.50
2023-04-06T16:41:09.373Z,45.67
2023-04-06T16:43:43.995Z,45.76
2023-04-06T16:46:17.544Z,45.85
2023-04-06T16:48:50.371Z,45.99
2023-04-06T16:51:52.769Z,46.16
2023-04-06T16:54:54.555Z,46.23
2023-04-06T16:57:30.205Z,46.32
2023-04-06T17:00:30.690Z,46.27
2023-04-06T17:03:18.411Z,46.27
2023-04-06T17:05:54.827Z,45.90
2023-04-06T17:09:12.730Z,45.93
2023-04-06T17:11:47.238Z,45.91
2023-04-06T17:14:23.437Z,46.00
2023-04-06T17:17:01.825Z,45.99
2023-04-06T17:19:40.978Z,45.46
2023-04-06T17:22:22.779Z,45.37
2023-04-06T17:24:55.727Z,45.41
2023-04-06T17:27:34.763Z,45.45
2023-04-06T17:30:14.159Z,45.30
2023-04-06T17:32:48.091Z,45.38
2023-04-06T17:35:21.649Z,45.54
2023-04-06T17:37:54.624Z,45.78
2023-04-06T17:40:28.652Z,45.93
2023-04-06T17:43:01.716Z,46.12
2023-04-06T17:45:40.982Z,46.30
2023-04-06T17:48:16.734Z,46.59
2023-04-06T17:50:52.117Z,46.60
2023-04-06T17:53:30.841Z,46.50
2023-04-06T17:56:05.857Z,46.33
2023-04-06T17:58:41.405Z,46.24
2023-04-06T18:01:14.969Z,46.17
2023-04-06T18:03:52.911Z,46.19
2023-04-06T18:06:28.039Z,46.13
2023-04-06T18:09:01.821Z,46.24
2023-04-06T18:11:35.242Z,45.97
2023-04-06T18:14:16.187Z,45.91
2023-04-06T18:16:53.138Z,45.97
2023-04-06T18:19:25.858Z,46.10
2023-04-06T18:21:59.468Z,46.43
2023-04-06T18:24:43.434Z,46.72
2023-04-06T18:27:25.627Z,47.35
2023-04-06T18:29:59.953Z,47.58
2023-04-06T18:32:38.555Z,47.97
2023-04-06T18:35:14.524Z,48.41
2023-04-06T18:37:48.331Z,48.99
2023-04-06T18:40:37.296Z,52.84
2023-04-06T18:43:12.842Z,52.31
2023-04-06T18:45:48.524Z,53.23
2023-04-06T18:48:21.787Z,52.68
2023-04-06T18:51:06.884Z,53.14
2023-04-06T18:53:40.178Z,53.21
2023-04-06T18:56:21.543Z,53.53
2023-04-06T18:58:55.722Z,52.79
2023-04-06T19:01:43.852Z,52.82
2023-04-06T19:04:21.817Z,54.30
2023-04-06T19:06:56.664Z,53.51
2023-04-06T19:09:32.911Z,54.11
2023-04-06T19:12:50.712Z,53.82
2023-04-06T19:15:30.363Z,53.87
2023-04-06T19:18:04.202Z,53.91
2023-04-06T19:20:59.482Z,54.76
2023-04-06T19:23:35.612Z,54.88
2023-04-06T19:26:14.279Z,55.42
2023-04-06T19:28:59.321Z,55.21
2023-04-06T19:31:52.427Z,55.31
2023-04-06T19:39:03.104Z,55.01
2023-04-06T19:46:59.499Z,55.19
2023-04-06T19:58:06.881Z,56.01
2023-04-06T20:05:02.607Z,56.46
2023-04-06T20:08:07.183Z,56.41
2023-04-06T20:11:45.383Z,56.62
2023-04-06T20:15:00.477Z,56.63
2023-04-06T20:18:31.645Z,56.73
2023-04-06T20:21:52.501Z,56.63
2023-04-06T20:29:09.736Z,56.72
2023-04-06T20:40:28.566Z,56.81
2023-04-06T20:47:53.113Z,56.96
2023-04-06T20:51:49.787Z,57.03
2023-04-06T20:55:09.214Z,57.02
2023-04-06T20:58:15.888Z,57.02
2023-04-06T21:05:33.550Z,57.16
2023-04-06T21:12:29.943Z,57.21
2023-04-06T21:15:49.849Z,57.35
2023-04-06T21:18:26.114Z,57.36
2023-04-06T21:21:02.023Z,57.29
2023-04-06T21:24:25.299Z,57.33
2023-04-06T21:27:29.092Z,57.45
2023-04-06T21:30:42.306Z,57.54
2023-04-06T21:34:02.356Z,57.64
2023-04-06T21:37:05.533Z,57.77
2023-04-06T21:44:07.167Z,57.92
2023-04-06T21:47:42.795Z,57.91
2023-04-06T21:55:11.680Z,58.06
2023-04-06T21:58:32.925Z,58.01
2023-04-06T22:01:25.654Z,58.00
2023-04-06T22:05:44.796Z,57.87
2023-04-06T22:09:42.770Z,58.14
2023-04-06T22:12:59.284Z,58.06
2023-04-06T22:17:03.753Z,57.21
2023-04-06T22:21:06.152Z,54.14
2023-04-06T22:24:44.541Z,52.91
2023-04-06T22:27:55.170Z,51.60
2023-04-06T22:31:14.919Z,52.20
2023-04-06T22:34:40.522Z,51.65
2023-04-06T22:38:04.616Z,52.59
2023-04-06T22:41:32.329Z,52.28
2023-04-06T22:44:43.108Z,52.06
2023-04-06T22:47:54.979Z,52.54
2023-04-06T22:50:50.103Z,52.40
2023-04-06T22:54:33.827Z,52.41
2023-04-06T22:57:57.176Z,52.25
2023-04-06T23:01:16.827Z,52.42
2023-04-06T23:04:36.201Z,52.49
2023-04-06T23:07:55.454Z,52.28
2023-04-06T23:11:25.164Z,52.31
2023-04-06T23:14:32.773Z,52.18
2023-04-06T23:17:59.305Z,52.34
2023-04-06T23:25:02.459Z,52.05
2023-04-06T23:28:56.281Z,51.50
2023-04-06T23:32:34.718Z,51.80
2023-04-06T23:35:47.037Z,52.29
2023-04-06T23:39:14.940Z,52.35
2023-04-06T23:42:13.505Z,52.30
2023-04-06T23:45:35.054Z,52.36
2023-04-06T23:48:43.751Z,52.38
2023-04-06T23:52:00.353Z,52.27
2023-04-06T23:58:57.041Z,52.08
